Flight Track Log - Related Links

Times and Time Zones

All times are in EDT time to prevent confusion due to time zone crossing. See the DAL3780 flight status page for this flight to view local times or setup timezone preferences in your user account.

Time Position Orientation Groundspeed Altitude Reporting Facility
EDT Latitude Longitude Course Direction KTS MPH feet Rate Location/Type
Thu 06:04:12 PM 40.5831 -89.0006 318° Northwest 225 259 5,500  Level Chicago Center
Thu 06:05:14 PM 40.6358 -89.0694 315° West 256 295 7,700 2,129 Climbing Chicago Center
Thu 06:06:16 PM 40.6914 -89.1397 316° Northwest 272 313 9,900 2,177 Climbing Chicago Center
Thu 06:07:18 PM 40.7650 -89.2322 316° Northwest 298 343 12,200 2,032 Climbing Chicago Center
Thu 06:08:00 PM 40.8968 -89.4392 308° West  Level FlightAware Approximate
Thu 06:08:20 PM 40.8264 -89.3125 315° West 309 356 14,100  Level Chicago Center
Thu 06:09:22 PM 40.8883 -89.3933 315° West 314 361 15,900 1,500 Climbing Chicago Center
Thu 06:10:24 PM 40.9503 -89.4789 314° West 322 371 17,200 1,056 Climbing Chicago Center
Thu 06:11:27 PM 41.0167 -89.5636 316° Northwest 332 382 18,100 912 Climbing Chicago Center
Thu 06:12:29 PM 41.1022 -89.6717 316° Northwest 355 409 19,100 774 Climbing Chicago Center
Thu 06:13:31 PM 41.1764 -89.7703 315° West 376 433 19,700 581 Climbing Chicago Center
Thu 06:14:33 PM 41.2536 -89.8711 316° Northwest 388 447 20,300 581 Climbing Chicago Center
Thu 06:15:35 PM 41.3325 -89.9750 315° West 398 458 20,900 629 Climbing Chicago Center
Thu 06:16:37 PM 41.4111 -90.0781 316° Northwest 398 458 21,600 774 Climbing Chicago Center
Thu 06:17:39 PM 41.5042 -90.2036 315° West 398 458 22,500 774 Climbing Chicago Center
Thu 06:18:41 PM 41.5800 -90.3108 313° West 400 460 23,200 677 Climbing Chicago Center
Thu 06:19:43 PM 41.6586 -90.4133 316° Northwest 397 457 23,900 677 Climbing Chicago Center
Thu 06:20:45 PM 41.7303 -90.5217 312° West 392 451 24,600 629 Climbing Chicago Center
Thu 06:21:47 PM 41.7869 -90.6558 300° West 398 458 25,200 581 Climbing Chicago Center
Thu 06:22:49 PM 41.8433 -90.7803 301° West 396 456 25,800 384 Climbing Chicago Center
Thu 06:23:52 PM 41.9014 -90.9056 302° West 398 458 26,000 96 Climbing Chicago Center
Thu 06:24:54 PM 41.9722 -91.0633 301° West 412 474 26,000  Level Chicago Center
Thu 06:25:56 PM 42.0325 -91.1967 301° West 421 484 26,000  Level Chicago Center
Thu 06:26:58 PM 42.0928 -91.3325 301° West 424 488 26,000  Level Chicago Center
Thu 06:28:00 PM 42.1536 -91.4689 301° West 425 489 26,000  Level Chicago Center
Thu 06:29:02 PM 42.2142 -91.6078 301° West 429 494 26,000  Level Chicago Center
Thu 06:30:04 PM 42.2881 -91.7753 301° West 433 498 26,000  Level Chicago Center
Thu 06:31:06 PM 42.3500 -91.9142 301° West 433 498 26,000  Level Chicago Center
Thu 06:32:08 PM 42.4500 -92.0031 327° Northwest 431 496 26,000  Level Chicago Center
Thu 06:33:10 PM 42.5539 -92.0842 330° Northwest 430 495 26,000  Level Chicago Center
Thu 06:34:12 PM 42.6583 -92.1694 329° Northwest 435 501 26,000  Level Chicago Center
Thu 06:35:15 PM 42.7617 -92.2525 329° Northwest 433 498 26,000  Level Chicago Center
Thu 06:36:17 PM 42.8861 -92.3536 329° Northwest 434 499 26,000 -32 Level Chicago Center
Thu 06:38:21 PM 43.0936 -92.5217 329° Northwest 434 499 25,900 -197 Descending Chicago Center
Thu 06:39:20 PM 43.1969 -92.6078 329° Northwest 438 504 25,400 -496 Descending Minneapolis Center
Thu 06:40:22 PM 43.3061 -92.6953 330° Northwest 452 520 24,900 -484 Descending Minneapolis Center
Thu 06:41:24 PM 43.4136 -92.7833 329° Northwest 453 521 24,400 -435 Descending Minneapolis Center
Thu 06:42:26 PM 43.5439 -92.8900 329° Northwest 458 527 24,000 -387 Descending Minneapolis Center
Thu 06:43:28 PM 43.6494 -92.9831 327° Northwest 457 526 23,600 -1,440 Descending Minneapolis Center
Thu 06:44:31 PM 43.7503 -93.0689 328° Northwest 442 509 21,000 -2,496 Descending Minneapolis Center
Thu 06:45:33 PM 43.8486 -93.1467 330° Northwest 411 473 18,400 -2,419 Descending Minneapolis Center
Thu 06:46:35 PM 43.9397 -93.2233 329° Northwest 390 449 16,000 -2,371 Descending Minneapolis Center
Thu 06:47:37 PM 44.0414 -93.2397 353° North 390 449 13,500 -2,468 Descending Minneapolis Center
Thu 06:48:39 PM 44.1658 -93.2269 North 378 435 10,900 -1,694 Descending Minneapolis Center
Thu 06:49:41 PM 44.2711 -93.2167 North 382 440 10,000 -435 Descending Minneapolis Center
Thu 06:50:43 PM 44.3594 -93.2081 North 320 368 10,000 -48 Level Minneapolis Center
Thu 06:51:45 PM 44.4486 -93.1986 North 322 371 9,900 -484 Descending Minneapolis Center
Thu 06:52:47 PM 44.5258 -93.1908 North 279 321 9,000 -435 Descending Minneapolis Center
Thu 06:53:49 PM 44.6208 -93.1831 North 285 328 9,000 -242 Level Minneapolis Center
Thu 06:54:51 PM 44.6947 -93.2219 339° North 281 323 8,500 -484 Descending Minneapolis Center
Thu 06:55:53 PM 44.7656 -93.2661 336° Northwest 263 303 8,000 -240 Descending Minneapolis Center
Thu 06:56:56 PM 44.8189 -93.3089 330° Northwest 227 261 8,000  Level Minneapolis Center
Thu 06:57:58 PM 44.8467 -93.3828 298° West 216 249 8,000  Level Minneapolis Center
Thu 06:59:00 PM 44.8736 -93.4572 297° West 214 246 8,000 -484 Level Minneapolis Center
Thu 07:00:02 PM 44.8944 -93.5325 291° West 209 241 7,000 -1,000 Descending Minneapolis Center
Thu 07:02:06 PM 44.9514 -93.5369 357° North 204 235 4,900 -1,000 Descending Minneapolis Center
Thu 07:03:08 PM 44.9567 -93.4633 84° East 191 220 3,900 -871 Descending Minneapolis Center
Thu 07:04:10 PM 44.9533 -93.3925 94° East 181 208 3,100 -629 Descending Minneapolis Center
Thu 07:05:12 PM 44.9306 -93.3336 119° Southeast 171 197 2,600 -677 Descending Minneapolis Center
Thu 07:06:14 PM 44.9089 -93.2822 121° Southeast 153 176 1,700 -871 Descending Minneapolis Center
Thu 07:08:00 PM 44.8820 -93.2218 50° Northeast  Level Estimated
Thu 07:15:00 PM 44.8820 -93.2218 50° Northeast  Level Estimated

Login

Don't have an account? Register now (free) for customized features, flight alerts, and more!